createdAt,value
2018-03-25T00:02:10.416Z,23.90
2018-03-25T00:04:37.880Z,24.07
2018-03-25T00:07:05.943Z,24.93
2018-03-25T00:09:33.397Z,25.77
2018-03-25T00:12:01.146Z,25.53
2018-03-25T00:14:28.586Z,24.00
2018-03-25T00:16:56.047Z,24.43
2018-03-25T00:19:23.508Z,24.17
2018-03-25T00:21:51.302Z,26.07
2018-03-25T00:24:18.791Z,25.30
2018-03-25T00:26:46.221Z,25.30
2018-03-25T00:29:13.680Z,25.40
2018-03-25T00:31:41.143Z,25.00
2018-03-25T00:34:08.596Z,23.70
2018-03-25T00:36:36.372Z,25.90
2018-03-25T00:39:03.807Z,25.20
2018-03-25T00:41:32.036Z,24.17
2018-03-25T00:43:59.504Z,25.93
2018-03-25T00:46:26.967Z,25.63
2018-03-25T00:48:54.415Z,26.67
2018-03-25T00:51:21.862Z,25.90
2018-03-25T00:53:50.151Z,26.17
2018-03-25T00:56:17.590Z,25.43
2018-03-25T00:58:45.811Z,27.00
2018-03-25T01:01:13.241Z,25.90
2018-03-25T01:03:40.685Z,25.33
2018-03-25T01:06:08.935Z,26.60
2018-03-25T01:08:36.378Z,25.03
2018-03-25T01:11:03.823Z,25.57
2018-03-25T01:13:31.272Z,25.97
2018-03-25T01:16:09.827Z,24.07
2018-03-25T01:18:37.286Z,26.40
2018-03-25T01:21:04.747Z,25.07
2018-03-25T01:23:32.222Z,24.43
2018-03-25T01:25:59.682Z,25.53
2018-03-25T01:28:27.903Z,24.87
2018-03-25T01:30:56.138Z,25.60
2018-03-25T01:33:24.430Z,26.57
2018-03-25T01:35:51.882Z,25.97
2018-03-25T01:38:19.322Z,25.17
2018-03-25T01:40:46.804Z,24.27
2018-03-25T01:43:14.242Z,26.37
2018-03-25T01:45:41.685Z,26.57
2018-03-25T01:48:09.919Z,25.13
2018-03-25T01:50:37.377Z,26.20
2018-03-25T01:53:04.833Z,26.30
2018-03-25T01:55:32.318Z,27.10
2018-03-25T01:57:59.766Z,28.30
2018-03-25T02:00:27.982Z,25.17
2018-03-25T02:02:56.215Z,27.07
2018-03-25T02:05:23.671Z,28.17
2018-03-25T02:07:51.114Z,26.80
2018-03-25T02:10:18.558Z,25.70
2018-03-25T02:12:46.778Z,26.40
2018-03-25T02:15:14.202Z,28.93
2018-03-25T02:17:42.413Z,25.70
2018-03-25T02:20:09.862Z,26.67
2018-03-25T02:22:37.311Z,26.60
2018-03-25T02:25:04.749Z,25.50
2018-03-25T02:27:32.199Z,26.87
2018-03-25T02:29:59.693Z,26.47
2018-03-25T02:32:27.906Z,26.43
2018-03-25T02:34:55.355Z,26.37
2018-03-25T02:37:22.822Z,24.97
2018-03-25T02:39:50.271Z,24.73
2018-03-25T02:42:17.718Z,24.60
2018-03-25T02:44:45.960Z,26.13
2018-03-25T02:47:13.415Z,27.03
2018-03-25T02:49:40.862Z,27.17
2018-03-25T02:52:08.290Z,26.97
2018-03-25T02:54:36.515Z,25.03
2018-03-25T02:57:03.982Z,27.40
2018-03-25T02:59:31.414Z,25.80
2018-03-25T03:01:58.923Z,26.73
2018-03-25T03:04:26.375Z,27.13
2018-03-25T03:06:54.586Z,26.83
2018-03-25T03:09:22.842Z,27.73
2018-03-25T03:11:50.284Z,29.57
2018-03-25T03:14:17.762Z,27.73
2018-03-25T03:16:45.217Z,27.80
2018-03-25T03:19:12.693Z,29.20
2018-03-25T03:21:40.150Z,28.60
2018-03-25T03:24:08.358Z,29.40
2018-03-25T03:26:35.830Z,27.30
2018-03-25T03:29:04.063Z,28.53
2018-03-25T03:31:31.518Z,28.17
2018-03-25T03:33:58.982Z,28.33
2018-03-25T03:36:26.436Z,28.80
2018-03-25T03:38:53.882Z,28.03
2018-03-25T03:41:21.357Z,27.80
2018-03-25T03:43:48.810Z,27.80
2018-03-25T03:46:16.260Z,30.70
2018-03-25T03:48:44.474Z,29.07
2018-03-25T03:51:11.934Z,28.27
2018-03-25T03:53:39.379Z,30.03
2018-03-25T03:56:06.830Z,29.17
2018-03-25T03:58:34.275Z,31.87
2018-03-25T04:01:01.728Z,28.60
2018-03-25T04:03:29.182Z,29.33
2018-03-25T04:05:56.644Z,30.67
2018-03-25T04:08:24.084Z,29.87
2018-03-25T04:10:51.540Z,30.33
2018-03-25T04:13:19.004Z,32.27
2018-03-25T04:15:46.453Z,33.77
2018-03-25T04:18:13.911Z,33.07
2018-03-25T04:20:41.351Z,30.03
2018-03-25T04:23:09.567Z,32.00
2018-03-25T04:25:37.013Z,31.23
2018-03-25T04:28:04.445Z,29.93
2018-03-25T04:30:32.701Z,32.17
2018-03-25T04:33:00.180Z,31.80
2018-03-25T04:35:27.684Z,31.90
2018-03-25T04:37:55.093Z,30.17
2018-03-25T04:40:22.722Z,33.00
2018-03-25T04:42:50.163Z,31.47
2018-03-25T04:45:17.620Z,32.10
2018-03-25T04:47:45.823Z,32.80
2018-03-25T04:50:13.280Z,33.20
2018-03-25T04:52:40.732Z,33.73
2018-03-25T04:55:08.186Z,34.07
2018-03-25T04:57:36.399Z,30.57
2018-03-25T05:00:03.843Z,31.40
2018-03-25T05:02:31.292Z,32.47
2018-03-25T05:04:59.514Z,30.47
2018-03-25T05:07:26.947Z,31.43
2018-03-25T05:09:54.385Z,30.23
2018-03-25T05:12:22.594Z,32.00
2018-03-25T05:14:50.035Z,34.20
2018-03-25T05:17:18.257Z,30.93
2018-03-25T05:19:45.704Z,29.50
2018-03-25T05:22:13.126Z,32.83
2018-03-25T05:24:41.358Z,32.63
2018-03-25T05:27:08.804Z,31.43
2018-03-25T05:29:36.242Z,33.73
2018-03-25T05:32:04.480Z,32.07
2018-03-25T05:34:31.926Z,30.57
2018-03-25T05:36:59.386Z,31.97
2018-03-25T05:39:26.838Z,30.03
2018-03-25T05:41:54.289Z,32.73
2018-03-25T05:44:24.563Z,33.10
2018-03-25T05:46:52.086Z,31.87
2018-03-25T05:49:19.526Z,31.43
2018-03-25T05:51:46.956Z,32.67
2018-03-25T05:54:14.395Z,32.00
2018-03-25T05:56:41.847Z,32.20
2018-03-25T05:59:09.291Z,32.20
2018-03-25T06:01:36.787Z,32.90
2018-03-25T06:04:04.238Z,31.47
2018-03-25T06:06:31.670Z,27.07
2018-03-25T06:08:59.892Z,29.50
2018-03-25T06:11:27.343Z,31.23
2018-03-25T06:13:54.795Z,29.10
2018-03-25T06:16:22.234Z,30.53
2018-03-25T06:18:50.478Z,31.10
2018-03-25T06:21:17.922Z,32.30
2018-03-25T06:23:45.386Z,31.43
2018-03-25T06:26:12.842Z,33.80
2018-03-25T06:28:40.304Z,32.37
2018-03-25T06:31:07.780Z,35.53
2018-03-25T06:33:35.219Z,41.75
2018-03-25T06:36:02.665Z,35.60
2018-03-25T06:38:30.145Z,34.23
2018-03-25T06:40:57.577Z,31.53
2018-03-25T06:43:25.787Z,32.87
2018-03-25T06:45:53.946Z,35.30
2018-03-25T06:48:21.383Z,33.30
2018-03-25T06:50:48.834Z,31.23
2018-03-25T06:53:16.299Z,31.23
2018-03-25T06:55:43.756Z,31.23
2018-03-25T06:58:11.195Z,32.87
2018-03-25T07:00:38.644Z,30.43
2018-03-25T07:03:06.090Z,32.17
2018-03-25T07:05:33.531Z,30.77
2018-03-25T07:08:01.738Z,33.37
2018-03-25T07:10:29.174Z,33.27
2018-03-25T07:12:57.396Z,30.50
2018-03-25T07:15:24.847Z,31.47
2018-03-25T07:17:52.299Z,38.83
2018-03-25T07:20:19.747Z,32.33
2018-03-25T07:22:47.205Z,37.50
2018-03-25T07:25:15.415Z,38.87
2018-03-25T07:27:42.878Z,39.00
2018-03-25T07:30:10.382Z,36.57
2018-03-25T07:32:37.804Z,40.90
2018-03-25T07:35:05.263Z,41.13
2018-03-25T07:37:32.715Z,41.87
2018-03-25T07:40:00.162Z,40.17
2018-03-25T07:42:27.604Z,43.00
2018-03-25T07:44:55.073Z,38.43
2018-03-25T07:47:23.316Z,43.47
2018-03-25T07:49:50.763Z,44.30
2018-03-25T07:52:18.245Z,38.70
2018-03-25T07:54:45.689Z,39.30
2018-03-25T07:57:13.150Z,40.47
2018-03-25T07:59:40.621Z,43.77
2018-03-25T08:02:08.093Z,45.00
2018-03-25T08:04:35.534Z,42.50
2018-03-25T08:07:03.770Z,37.97
2018-03-25T08:09:31.244Z,38.37
2018-03-25T08:11:59.486Z,40.97
2018-03-25T08:14:26.935Z,37.80
2018-03-25T08:16:54.382Z,42.80
2018-03-25T08:19:21.904Z,39.50
2018-03-25T08:21:50.135Z,39.50
2018-03-25T08:24:19.772Z,38.17
2018-03-25T08:26:47.896Z,44.03
2018-03-25T08:29:15.382Z,44.10
2018-03-25T08:31:42.836Z,46.17
2018-03-25T08:34:10.416Z,41.53
2018-03-25T08:36:37.887Z,40.27
2018-03-25T08:39:05.370Z,47.00
2018-03-25T08:41:33.675Z,43.50
2018-03-25T08:44:01.926Z,44.60
2018-03-25T08:46:29.355Z,43.03
2018-03-25T08:48:56.813Z,44.33
2018-03-25T08:51:24.274Z,37.03
2018-03-25T08:53:52.088Z,44.90
2018-03-25T08:56:19.558Z,43.30
2018-03-25T08:58:47.033Z,42.03
2018-03-25T09:01:14.475Z,43.03
2018-03-25T09:03:41.953Z,44.90
2018-03-25T09:06:13.140Z,40.37
2018-03-25T09:08:40.667Z,40.87
2018-03-25T09:11:09.310Z,38.90
2018-03-25T09:13:36.779Z,39.50
2018-03-25T09:16:04.226Z,43.00
2018-03-25T09:18:31.693Z,46.33
2018-03-25T09:20:59.150Z,41.13
2018-03-25T09:23:26.606Z,45.50
2018-03-25T09:25:54.069Z,45.90
2018-03-25T09:28:21.506Z,44.50
2018-03-25T09:30:49.722Z,43.60
2018-03-25T09:33:17.184Z,42.73
2018-03-25T09:35:44.659Z,42.33
2018-03-25T09:38:12.126Z,43.20
2018-03-25T09:40:39.596Z,41.90
2018-03-25T09:43:07.051Z,38.07
2018-03-25T09:45:35.290Z,40.10
2018-03-25T09:48:03.512Z,40.30
2018-03-25T09:50:30.980Z,42.23
2018-03-25T09:52:58.419Z,42.63
2018-03-25T09:55:25.892Z,38.60
2018-03-25T09:57:54.064Z,37.10
2018-03-25T10:00:27.264Z,42.70
2018-03-25T10:02:58.639Z,43.07
2018-03-25T10:05:26.088Z,39.43
2018-03-25T10:07:53.542Z,36.53
2018-03-25T10:10:21.011Z,40.73
2018-03-25T10:12:48.460Z,42.33
2018-03-25T10:15:15.914Z,40.80
2018-03-25T10:17:43.351Z,38.67
2018-03-25T10:20:12.505Z,42.50
2018-03-25T10:22:39.955Z,40.93
2018-03-25T10:25:07.417Z,38.70
2018-03-25T10:27:34.862Z,41.70
2018-03-25T10:30:02.310Z,38.73
2018-03-25T10:32:29.779Z,39.77
2018-03-25T10:34:58.007Z,42.57
2018-03-25T10:37:26.240Z,39.60
2018-03-25T10:39:54.479Z,40.23
2018-03-25T10:42:21.939Z,38.97
2018-03-25T10:44:49.380Z,38.57
2018-03-25T10:47:16.832Z,41.97
2018-03-25T10:49:44.308Z,40.97
2018-03-25T10:52:11.744Z,41.83
2018-03-25T10:54:39.196Z,40.80
2018-03-25T10:57:06.650Z,40.57
2018-03-25T10:59:34.860Z,40.87
2018-03-25T11:02:02.299Z,39.27
2018-03-25T11:04:29.751Z,37.73
2018-03-25T11:06:57.968Z,37.93
2018-03-25T11:09:26.200Z,39.93
2018-03-25T11:11:53.656Z,37.80
2018-03-25T11:14:21.116Z,39.33
2018-03-25T11:16:48.572Z,40.90
2018-03-25T11:19:16.016Z,39.03
2018-03-25T11:21:43.475Z,38.50
2018-03-25T11:24:10.929Z,39.40
2018-03-25T11:26:38.382Z,39.50
2018-03-25T11:29:05.847Z,39.07
2018-03-25T11:31:33.308Z,40.23
2018-03-25T11:34:00.754Z,39.63
2018-03-25T11:36:28.204Z,37.03
2018-03-25T11:38:56.440Z,35.87
2018-03-25T11:41:23.881Z,38.50
2018-03-25T11:43:51.333Z,39.10
2018-03-25T11:46:18.794Z,37.70
2018-03-25T11:48:46.243Z,36.87
2018-03-25T11:51:13.688Z,39.20
2018-03-25T11:53:41.898Z,37.20
2018-03-25T11:56:09.343Z,38.93
2018-03-25T11:58:36.794Z,38.47
2018-03-25T12:01:05.010Z,38.43
2018-03-25T12:03:32.480Z,35.83
2018-03-25T12:06:00.645Z,37.03
2018-03-25T12:08:28.111Z,35.53
2018-03-25T12:10:55.753Z,36.77
2018-03-25T12:13:24.130Z,34.97
2018-03-25T12:15:52.346Z,34.70
2018-03-25T12:18:19.958Z,35.53
2018-03-25T12:20:48.348Z,31.70
2018-03-25T12:23:16.566Z,33.33
2018-03-25T12:25:44.036Z,32.60
2018-03-25T12:28:11.476Z,29.13
2018-03-25T12:30:38.929Z,29.13
2018-03-25T12:33:07.156Z,30.57
2018-03-25T12:35:34.626Z,31.03
2018-03-25T12:38:02.839Z,31.30
2018-03-25T12:40:30.278Z,29.93
2018-03-25T12:42:57.734Z,29.93
2018-03-25T12:45:25.186Z,29.67
2018-03-25T12:47:52.623Z,28.40
2018-03-25T12:50:20.242Z,29.93
2018-03-25T12:52:47.694Z,29.57
2018-03-25T12:55:15.172Z,30.27
2018-03-25T12:57:42.623Z,30.93
2018-03-25T13:00:10.063Z,29.47
2018-03-25T13:02:37.511Z,29.40
2018-03-25T13:05:04.965Z,29.53
2018-03-25T13:07:32.402Z,29.73
2018-03-25T13:10:00.614Z,29.50
2018-03-25T13:12:28.100Z,29.93
2018-03-25T13:14:55.567Z,29.27
2018-03-25T13:17:23.030Z,30.17
2018-03-25T13:19:50.482Z,29.23
2018-03-25T13:22:17.925Z,27.63
2018-03-25T13:24:45.361Z,29.30
2018-03-25T13:27:13.608Z,29.83
2018-03-25T13:29:41.059Z,29.57
2018-03-25T13:32:08.556Z,29.00
2018-03-25T13:34:36.015Z,30.77
2018-03-25T13:37:03.484Z,28.27
2018-03-25T13:39:31.736Z,28.57
2018-03-25T13:41:59.217Z,28.83
2018-03-25T13:44:26.662Z,26.63
2018-03-25T13:46:54.156Z,26.70
2018-03-25T13:49:22.378Z,25.00
2018-03-25T13:51:49.833Z,26.10
2018-03-25T13:54:17.301Z,26.00
2018-03-25T13:56:44.809Z,25.77
2018-03-25T13:59:12.909Z,25.20
2018-03-25T14:01:41.127Z,27.13
2018-03-25T14:04:08.590Z,31.83
2018-03-25T14:06:36.035Z,28.70
2018-03-25T14:09:03.502Z,28.00
2018-03-25T14:11:30.957Z,28.47
2018-03-25T14:16:33.066Z,27.57
2018-03-25T14:19:00.550Z,27.17
2018-03-25T14:21:27.994Z,26.83
2018-03-25T14:23:55.454Z,25.30
2018-03-25T14:26:23.662Z,26.63
2018-03-25T14:28:51.164Z,25.57
2018-03-25T14:31:19.399Z,25.63
2018-03-25T14:33:46.876Z,24.97
2018-03-25T14:36:14.317Z,24.13
2018-03-25T14:38:41.804Z,23.10
2018-03-25T14:41:09.280Z,22.10
2018-03-25T14:43:36.727Z,20.50
2018-03-25T14:46:04.192Z,22.87
2018-03-25T14:48:31.643Z,22.33
2018-03-25T14:50:59.125Z,21.77
2018-03-25T14:53:26.599Z,20.57
2018-03-25T14:55:54.103Z,20.03
2018-03-25T14:58:21.568Z,20.37
2018-03-25T15:00:49.024Z,21.10
2018-03-25T15:03:16.491Z,20.27
2018-03-25T15:05:43.936Z,19.63
2018-03-25T15:08:11.392Z,19.07
2018-03-25T15:10:38.849Z,17.60
2018-03-25T15:13:07.091Z,17.43
2018-03-25T15:15:34.546Z,17.07
2018-03-25T15:18:01.984Z,17.13
2018-03-25T15:20:30.365Z,17.40
2018-03-25T15:22:57.812Z,16.10
2018-03-25T15:25:25.264Z,15.30
2018-03-25T15:27:53.493Z,15.43
2018-03-25T15:30:20.941Z,13.47
2018-03-25T15:32:48.386Z,13.30
2018-03-25T15:35:15.856Z,13.00
2018-03-25T15:37:43.315Z,12.33
2018-03-25T15:40:10.773Z,12.10
2018-03-25T15:42:38.216Z,13.13
2018-03-25T15:45:06.446Z,14.53
2018-03-25T15:47:33.924Z,14.30
2018-03-25T15:50:01.420Z,14.13
2018-03-25T15:52:28.880Z,14.73
2018-03-25T15:54:57.079Z,13.83
2018-03-25T15:57:24.535Z,14.60
2018-03-25T15:59:51.994Z,14.33
2018-03-25T16:02:20.234Z,15.37
2018-03-25T16:04:47.707Z,15.13
2018-03-25T16:07:15.175Z,17.50
2018-03-25T16:09:42.651Z,16.90
2018-03-25T16:12:10.105Z,15.87
2018-03-25T16:14:37.617Z,16.10
2018-03-25T16:17:06.012Z,16.03
2018-03-25T16:19:33.530Z,15.97
2018-03-25T16:22:01.811Z,16.13
2018-03-25T16:24:29.237Z,18.67
2018-03-25T16:26:56.701Z,17.43
2018-03-25T16:29:24.440Z,17.83
2018-03-25T16:31:52.655Z,17.83
2018-03-25T16:34:20.128Z,17.13
2018-03-25T16:36:47.573Z,15.53
2018-03-25T16:39:15.043Z,16.03
2018-03-25T16:41:42.511Z,13.47
2018-03-25T16:44:09.969Z,12.97
2018-03-25T16:46:37.426Z,12.20
2018-03-25T16:49:04.911Z,11.67
2018-03-25T16:51:32.375Z,11.93
2018-03-25T16:54:00.635Z,12.83
2018-03-25T16:56:28.093Z,12.10
2018-03-25T16:58:55.601Z,12.50
2018-03-25T17:01:23.843Z,13.43
2018-03-25T17:03:51.320Z,13.07
2018-03-25T17:06:18.783Z,13.30
2018-03-25T17:08:46.253Z,13.50
2018-03-25T17:11:14.471Z,13.97
2018-03-25T17:13:41.953Z,13.63
2018-03-25T17:16:09.646Z,13.63
2018-03-25T17:18:37.114Z,14.10
2018-03-25T17:21:04.540Z,14.87
2018-03-25T17:23:31.994Z,16.53
2018-03-25T17:25:59.451Z,16.53
2018-03-25T17:28:26.938Z,17.87
2018-03-25T17:30:54.408Z,22.90
2018-03-25T17:33:21.894Z,16.83
2018-03-25T17:35:49.357Z,17.27
2018-03-25T17:38:16.820Z,18.03
2018-03-25T17:40:44.280Z,18.50
2018-03-25T17:43:11.737Z,18.53
2018-03-25T17:45:39.220Z,22.27
2018-03-25T17:48:06.673Z,22.17
2018-03-25T17:50:34.204Z,24.90
2018-03-25T17:53:01.666Z,25.97
2018-03-25T17:55:29.113Z,26.20
2018-03-25T17:57:56.576Z,30.37
2018-03-25T18:00:24.030Z,24.87
2018-03-25T18:02:51.493Z,25.97
2018-03-25T18:05:18.943Z,27.77
2018-03-25T18:07:46.421Z,26.77
2018-03-25T18:10:13.860Z,29.97
2018-03-25T18:12:42.084Z,32.20
2018-03-25T18:15:09.583Z,34.20
2018-03-25T18:17:37.024Z,27.50
2018-03-25T18:20:04.488Z,26.57
2018-03-25T18:22:31.969Z,28.37
2018-03-25T18:24:59.428Z,28.07
2018-03-25T18:27:26.879Z,27.63
2018-03-25T18:29:54.348Z,27.63
2018-03-25T18:32:21.804Z,28.73
2018-03-25T18:34:49.272Z,30.20
2018-03-25T18:37:16.764Z,29.10
2018-03-25T18:39:44.179Z,28.83
2018-03-25T18:42:11.619Z,31.10
2018-03-25T18:44:39.370Z,30.80
2018-03-25T18:47:06.836Z,29.27
2018-03-25T18:49:34.332Z,29.53
2018-03-25T18:52:01.786Z,30.33
2018-03-25T18:54:29.260Z,29.53
2018-03-25T18:56:56.700Z,31.83
2018-03-25T18:59:24.140Z,32.73
2018-03-25T19:01:52.368Z,35.63
2018-03-25T19:04:19.846Z,37.30
2018-03-25T19:06:47.296Z,36.00
2018-03-25T19:09:14.736Z,34.03
2018-03-25T19:11:42.185Z,33.53
2018-03-25T19:14:09.648Z,37.27
2018-03-25T19:16:37.200Z,36.60
2018-03-25T19:19:05.398Z,35.97
2018-03-25T19:21:32.860Z,39.80
2018-03-25T19:24:00.328Z,38.30
2018-03-25T19:26:27.786Z,40.30
2018-03-25T19:28:55.251Z,37.17
2018-03-25T19:31:22.695Z,39.20
2018-03-25T19:33:50.190Z,39.83
2018-03-25T19:36:17.630Z,36.70
2018-03-25T19:38:45.078Z,38.33
2018-03-25T19:41:13.299Z,40.17
2018-03-25T19:43:40.782Z,37.93
2018-03-25T19:46:08.260Z,37.23
2018-03-25T19:48:36.366Z,36.73
2018-03-25T19:51:04.569Z,38.07
2018-03-25T19:53:32.050Z,33.80
2018-03-25T19:56:00.256Z,33.00
2018-03-25T19:58:27.708Z,34.63
2018-03-25T20:00:55.149Z,33.87
2018-03-25T20:03:22.612Z,33.27
2018-03-25T20:05:50.113Z,31.53
2018-03-25T20:08:17.571Z,31.97
2018-03-25T20:10:45.037Z,31.20
2018-03-25T20:13:12.496Z,31.13
2018-03-25T20:15:39.957Z,29.97
2018-03-25T20:18:07.435Z,24.40
2018-03-25T20:20:34.940Z,22.50
2018-03-25T20:23:02.446Z,23.83
2018-03-25T20:25:29.902Z,23.70
2018-03-25T20:27:57.371Z,22.70
2018-03-25T20:30:24.820Z,23.50
2018-03-25T20:32:52.338Z,23.03
2018-03-25T20:35:20.545Z,22.27
2018-03-25T20:37:48.022Z,22.50
2018-03-25T20:40:15.466Z,21.37
2018-03-25T20:42:42.907Z,22.43
2018-03-25T20:45:10.362Z,23.43
2018-03-25T20:47:38.579Z,22.97
2018-03-25T20:50:06.044Z,23.97
2018-03-25T20:52:34.266Z,22.97
2018-03-25T20:57:36.439Z,22.40
2018-03-25T21:00:03.920Z,21.37
2018-03-25T21:02:31.377Z,21.50
2018-03-25T21:04:58.813Z,19.67
2018-03-25T21:07:27.636Z,21.73
2018-03-25T21:09:55.089Z,22.13
2018-03-25T21:12:22.557Z,20.80
2018-03-25T21:14:50.041Z,20.70
2018-03-25T21:17:18.255Z,19.67
2018-03-25T21:19:45.754Z,20.73
2018-03-25T21:22:13.200Z,20.77
2018-03-25T21:24:40.662Z,21.27
2018-03-25T21:27:08.899Z,22.77
2018-03-25T21:29:37.118Z,19.77
2018-03-25T21:32:05.343Z,20.10
2018-03-25T21:34:33.575Z,20.63
2018-03-25T21:37:01.322Z,20.27
2018-03-25T21:39:28.782Z,20.93
2018-03-25T21:41:56.251Z,20.27
2018-03-25T21:44:23.724Z,20.50
2018-03-25T21:46:51.211Z,19.80
2018-03-25T21:49:18.671Z,20.90
2018-03-25T21:51:46.210Z,20.47
2018-03-25T21:54:13.598Z,21.47
2018-03-25T21:56:41.033Z,21.07
2018-03-25T21:59:08.500Z,19.40
2018-03-25T22:01:35.958Z,21.03
2018-03-25T22:04:03.416Z,20.53
2018-03-25T22:06:30.875Z,19.90
2018-03-25T22:08:58.323Z,19.77
2018-03-25T22:11:25.795Z,22.03
2018-03-25T22:13:53.325Z,19.47
2018-03-25T22:16:20.781Z,19.67
2018-03-25T22:18:59.119Z,19.13
2018-03-25T22:21:27.375Z,20.03
2018-03-25T22:23:54.814Z,20.20
2018-03-25T22:26:22.276Z,19.70
2018-03-25T22:28:49.736Z,21.80
2018-03-25T22:31:17.202Z,20.73
2018-03-25T22:33:44.667Z,20.13
2018-03-25T22:36:12.114Z,18.70
2018-03-25T22:38:39.584Z,19.97
2018-03-25T22:41:07.018Z,20.13
2018-03-25T22:43:34.495Z,16.90
2018-03-25T22:46:01.954Z,19.80
2018-03-25T22:48:29.419Z,18.60
2018-03-25T22:50:56.871Z,17.77
2018-03-25T22:53:24.342Z,17.30
2018-03-25T22:55:51.810Z,17.90
2018-03-25T22:58:19.261Z,18.63
2018-03-25T23:00:47.414Z,17.57
2018-03-25T23:03:15.657Z,15.80
2018-03-25T23:05:43.113Z,15.77
2018-03-25T23:08:10.569Z,15.20
2018-03-25T23:10:38.038Z,17.60
2018-03-25T23:13:05.517Z,16.43
2018-03-25T23:15:34.511Z,16.27
2018-03-25T23:18:02.007Z,14.43
2018-03-25T23:20:30.518Z,14.53
2018-03-25T23:22:58.010Z,15.13
2018-03-25T23:25:25.510Z,13.80
2018-03-25T23:27:52.934Z,13.30
2018-03-25T23:30:20.386Z,13.03
2018-03-25T23:32:47.871Z,13.67
2018-03-25T23:35:15.305Z,13.70
2018-03-25T23:37:42.768Z,14.40
2018-03-25T23:40:10.231Z,13.17
2018-03-25T23:42:37.679Z,12.03
2018-03-25T23:45:05.324Z,12.73
2018-03-25T23:47:33.550Z,13.50
2018-03-25T23:50:01.025Z,10.77
2018-03-25T23:52:28.494Z,11.80
2018-03-25T23:54:55.951Z,11.97
2018-03-25T23:57:23.408Z,12.03
2018-03-25T23:59:50.864Z,11.43
